Time;durP1;ratioP1;P1;durP2;ratioP2;P2;SDS_P1;SDS_P2;PMS_P1;PMS_P2;Temp;Humidity;BMP_temperature;BMP_pressure;BME280_temperature;BME280_humidity;BME280_pressure;Samples;Min_cycle;Max_cycle;Signal;HPM_P1;HPM_P2
2022/12/22 03:26:49;;;;;;;85.55;34.20;;;;;;;-2.85;84.10;99295.09;1635016;87;21058;-76
2022/12/22 03:29:16;;;;;;;81.70;30.97;;;;;;;-2.84;83.81;99290.47;1636166;87;21030;-74
2022/12/22 03:31:44;;;;;;;85.72;31.60;;;;;;;-2.84;83.77;99295.98;1636389;88;20979;-76
2022/12/22 03:34:11;;;;;;;84.32;32.30;;;;;;;-2.83;83.92;99290.05;1636377;88;21094;-77
2022/12/22 03:36:39;;;;;;;84.72;32.93;;;;;;;-2.77;84.04;99296.61;1636413;88;20991;-76
2022/12/22 03:39:06;;;;;;;83.75;32.30;;;;;;;-2.69;83.97;99299.39;1636344;87;21039;-76
2022/12/22 03:47:06;;;;;;;89.80;34.43;;;;;;;-2.58;83.66;99290.42;1636481;87;21046;-76
2022/12/22 03:49:33;;;;;;;89.03;32.98;;;;;;;-2.54;83.72;99287.56;1636504;87;21034;-76
2022/12/22 03:52:01;;;;;;;87.65;30.55;;;;;;;-2.48;83.68;99285.20;1636504;88;21059;-76
2022/12/22 03:54:28;;;;;;;89.67;33.02;;;;;;;-2.44;83.57;99292.11;1635842;87;21090;-76
2022/12/22 03:56:56;;;;;;;78.75;30.30;;;;;;;-2.39;83.44;99290.55;1635610;88;21054;-76
2022/12/22 03:59:24;;;;;;;80.53;30.23;;;;;;;-2.44;83.36;99278.96;1635664;88;21078;-76
2022/12/22 04:01:53;;;;;;;84.32;32.23;;;;;;;-2.40;83.32;99280.78;1635653;87;21082;-76
2022/12/22 04:04:25;;;;;;;79.62;32.45;;;;;;;-2.37;83.44;99280.41;1636743;88;21031;-76
2022/12/22 04:06:53;;;;;;;94.30;34.05;;;;;;;-2.31;83.41;99281.86;1635937;88;21098;-76
2022/12/22 04:09:25;;;;;;;81.57;32.10;;;;;;;-2.25;83.50;99278.22;1635834;87;21118;-76
2022/12/22 04:14:39;;;;;;;83.55;32.00;;;;;;;-2.13;83.21;99276.05;1635740;87;21602;-77
2022/12/22 04:17:08;;;;;;;79.72;31.50;;;;;;;-2.10;83.01;99260.84;1635651;88;21002;-76
2022/12/22 04:19:36;;;;;;;67.12;28.75;;;;;;;-2.13;82.65;99266.25;1635614;86;21118;-76
2022/12/22 04:22:04;;;;;;;73.80;28.25;;;;;;;-2.13;82.81;99263.70;1635581;88;21073;-76
2022/12/22 04:24:31;;;;;;;69.07;25.65;;;;;;;-2.14;82.87;99267.94;1635659;88;21093;-76
2022/12/22 04:26:58;;;;;;;70.85;26.82;;;;;;;-2.12;82.90;99264.17;1635603;87;21085;-76
2022/12/22 04:29:26;;;;;;;68.50;26.15;;;;;;;-2.10;82.89;99270.17;1635740;88;21077;-76
2022/12/22 04:31:53;;;;;;;68.65;25.68;;;;;;;-2.16;82.73;99268.73;1634912;87;21059;-75
2022/12/22 04:34:21;;;;;;;61.95;26.17;;;;;;;-2.19;83.18;99265.66;1635091;88;21398;-77
2022/12/22 04:36:48;;;;;;;80.55;28.12;;;;;;;-2.16;83.11;99259.39;1631548;87;21111;-76
2022/12/22 04:39:15;;;;;;;71.55;27.58;;;;;;;-2.13;83.13;99257.33;1632709;88;21055;-76
2022/12/22 04:41:44;;;;;;;76.40;28.50;;;;;;;-2.15;82.94;99256.42;1627023;87;21115;-76
2022/12/22 04:44:11;;;;;;;73.35;27.27;;;;;;;-2.21;82.87;99258.00;1634714;88;21024;-76
2022/12/22 04:46:38;;;;;;;75.70;26.50;;;;;;;-2.17;83.01;99255.52;1629787;87;21091;-76
2022/12/22 04:49:06;;;;;;;76.02;25.02;;;;;;;-2.15;82.87;99259.83;1632160;88;21121;-76
2022/12/22 04:51:34;;;;;;;73.70;26.73;;;;;;;-2.09;82.89;99253.66;1632730;87;21099;-76
2022/12/22 04:54:01;;;;;;;96.85;34.80;;;;;;;-2.08;82.73;99253.25;1627983;88;21059;-76
2022/12/22 04:56:29;;;;;;;108.40;34.13;;;;;;;-2.06;82.65;99250.33;1633596;87;21099;-76
2022/12/22 04:58:56;;;;;;;88.90;29.90;;;;;;;-2.00;82.76;99247.95;1625552;88;22070;-76
2022/12/22 05:01:24;;;;;;;83.45;28.00;;;;;;;-1.98;82.55;99246.30;1616639;88;21631;-76
2022/12/22 05:03:51;;;;;;;68.30;28.25;;;;;;;-2.01;82.40;99247.09;1630545;87;21555;-76
2022/12/22 05:06:19;;;;;;;71.07;26.85;;;;;;;-2.01;82.32;99243.66;1631938;88;22078;-76
2022/12/22 05:08:46;;;;;;;69.00;29.37;;;;;;;-2.06;82.43;99248.63;1632209;87;21542;-76
2022/12/22 05:11:14;;;;;;;74.75;27.82;;;;;;;-2.06;82.51;99242.69;1631507;88;21070;-76
2022/12/22 05:13:41;;;;;;;79.42;29.15;;;;;;;-2.06;82.43;99251.59;1624732;87;21096;-76
2022/12/22 05:16:15;;;;;;;74.58;28.85;;;;;;;-2.16;82.44;99262.36;1628252;88;21056;-76
2022/12/22 05:18:44;;;;;;;90.72;32.83;;;;;;;-2.17;82.55;99260.61;1626886;86;21571;-77
2022/12/22 05:21:17;;;;;;;74.87;28.67;;;;;;;-2.19;82.82;99266.93;1634537;88;21865;-76
2022/12/22 05:23:45;;;;;;;90.05;31.05;;;;;;;-2.14;82.86;99267.09;1628959;87;21802;-76
2022/12/22 05:26:14;;;;;;;96.78;31.68;;;;;;;-2.13;82.66;99262.42;1635202;86;21137;-76
2022/12/22 05:28:45;;;;;;;85.65;29.65;;;;;;;-2.11;82.81;99268.42;1635164;87;22214;-76
2022/12/22 05:31:19;;;;;;;82.72;28.87;;;;;;;-2.10;82.59;99266.34;1636532;87;21047;-76
2022/12/22 05:33:48;;;;;;;73.35;27.98;;;;;;;-2.09;82.79;99270.22;1619979;87;21008;-76
2022/12/22 05:36:16;;;;;;;80.00;31.70;;;;;;;-2.05;82.79;99274.58;1633747;87;21031;-76
2022/12/22 05:38:43;;;;;;;75.65;30.08;;;;;;;-1.98;82.79;99277.30;1637454;87;21126;-76
2022/12/22 05:41:11;;;;;;;85.65;33.10;;;;;;;-2.01;82.56;99280.21;1634327;87;21040;-76
2022/12/22 05:43:39;;;;;;;84.15;32.98;;;;;;;-2.03;82.37;99272.05;1636554;87;21051;-76
2022/12/22 05:46:09;;;;;;;89.15;31.12;;;;;;;-2.04;82.67;99272.89;1630866;86;21083;-76
2022/12/22 05:48:37;;;;;;;86.08;33.28;;;;;;;-2.02;82.84;99272.10;1636626;87;21385;-76
2022/12/22 05:51:07;;;;;;;104.78;37.63;;;;;;;-2.02;82.65;99270.83;1630364;87;21111;-76
2022/12/22 05:53:36;;;;;;;97.33;34.43;;;;;;;-1.98;82.71;99267.96;1629529;87;21099;-76
2022/12/22 05:56:05;;;;;;;81.75;32.73;;;;;;;-1.97;82.79;99277.34;1632018;87;21142;-76
2022/12/22 05:58:36;;;;;;;86.20;32.20;;;;;;;-1.97;82.72;99279.01;1632955;87;21359;-76
2022/12/22 06:01:04;;;;;;;92.08;31.82;;;;;;;-1.98;82.81;99277.30;1633067;87;21091;-76
2022/12/22 06:03:31;;;;;;;83.82;33.40;;;;;;;-1.93;83.08;99279.16;1633386;87;21023;-76
2022/12/22 06:05:59;;;;;;;87.62;30.50;;;;;;;-1.90;83.09;99286.02;1634300;87;21020;-76
2022/12/22 06:08:27;;;;;;;95.20;37.17;;;;;;;-1.90;82.91;99293.24;1635377;87;21060;-76
2022/12/22 06:10:57;;;;;;;110.78;37.63;;;;;;;-1.93;82.72;99282.09;1635425;87;21104;-76
2022/12/22 06:13:25;;;;;;;125.55;40.90;;;;;;;-2.01;82.66;99280.59;1626393;87;21103;-76
2022/12/22 06:15:53;;;;;;;85.42;31.75;;;;;;;-2.00;82.94;99281.06;1635188;87;21067;-76
2022/12/22 06:18:20;;;;;;;82.62;31.73;;;;;;;-2.00;83.06;99284.47;1631660;86;21210;-76
2022/12/22 06:20:51;;;;;;;82.42;30.05;;;;;;;-1.98;83.03;99282.39;1636328;87;21032;-76
2022/12/22 06:23:21;;;;;;;78.12;29.52;;;;;;;-1.96;83.10;99282.88;1630579;87;21059;-76
2022/12/22 06:26:01;;;;;;;72.10;26.93;;;;;;;-1.94;83.01;99287.61;1636870;87;21020;-76
2022/12/22 06:28:28;;;;;;;75.05;29.92;;;;;;;-1.94;83.18;99285.06;1622379;87;21041;-76
2022/12/22 06:30:56;;;;;;;74.30;28.52;;;;;;;-1.92;83.13;99285.97;1630873;88;21001;-76
2022/12/22 06:33:23;;;;;;;77.55;30.40;;;;;;;-1.89;83.24;99289.89;1623793;87;21017;-76
2022/12/22 06:35:51;;;;;;;87.37;31.70;;;;;;;-1.84;83.35;99284.91;1630974;87;21040;-76
2022/12/22 06:38:18;;;;;;;96.35;34.55;;;;;;;-1.77;83.45;99282.10;1623657;87;21036;-76
2022/12/22 06:40:46;;;;;;;86.37;32.58;;;;;;;-1.73;83.17;99290.28;1631139;87;21033;-76
2022/12/22 06:43:14;;;;;;;85.62;33.95;;;;;;;-1.69;83.23;99289.55;1623772;87;20996;-76
2022/12/22 06:45:43;;;;;;;87.02;32.25;;;;;;;-1.68;83.20;99288.73;1631134;88;21544;-77
2022/12/22 06:48:12;;;;;;;98.22;34.63;;;;;;;-1.63;83.13;99289.73;1623635;87;21092;-77
2022/12/22 06:50:40;;;;;;;92.50;34.38;;;;;;;-1.65;82.97;99285.86;1631146;88;21045;-76
2022/12/22 06:53:08;;;;;;;77.27;29.90;;;;;;;-1.61;83.27;99294.05;1626202;87;21040;-76
2022/12/22 06:55:37;;;;;;;84.58;29.23;;;;;;;-1.55;83.24;99301.39;1629142;88;21528;-76
2022/12/22 06:58:05;;;;;;;68.10;26.97;;;;;;;-1.56;83.16;99297.13;1630050;87;21040;-76
2022/12/22 07:00:33;;;;;;;72.97;27.60;;;;;;;-1.57;83.16;99280.09;1625988;88;21963;-76
2022/12/22 07:03:00;;;;;;;71.35;27.58;;;;;;;-1.51;82.87;99292.61;1629959;87;21008;-76
2022/12/22 07:05:30;;;;;;;68.60;27.75;;;;;;;-1.56;82.69;99290.75;1626292;88;20977;-75
2022/12/22 07:07:57;;;;;;;68.80;27.65;;;;;;;-1.60;82.84;99282.16;1601933;88;21103;-77
2022/12/22 07:13:20;;;;;;;63.00;26.07;;;;;;;-1.42;83.09;99295.38;1622244;86;21051;-76
2022/12/22 07:15:47;;;;;;;71.92;27.50;;;;;;;-1.38;83.04;99282.72;1625314;86;21655;-77
2022/12/22 07:18:15;;;;;;;77.85;28.85;;;;;;;-1.31;82.93;99287.17;1627718;86;21063;-76
2022/12/22 07:20:42;;;;;;;76.95;31.50;;;;;;;-1.27;82.84;99283.45;1627243;86;21078;-77
2022/12/22 07:23:11;;;;;;;77.53;31.50;;;;;;;-1.21;82.97;99285.30;1627123;86;21087;-76
2022/12/22 07:25:38;;;;;;;93.92;31.45;;;;;;;-1.17;82.79;99290.92;1623330;86;21024;-76
2022/12/22 07:28:06;;;;;;;103.50;38.67;;;;;;;-1.14;82.81;99292.25;1624690;86;21048;-76
2022/12/22 07:30:38;;;;;;;105.83;40.20;;;;;;;-1.10;82.80;99281.72;1618833;88;21399;-76
2022/12/22 07:33:05;;;;;;;99.50;37.13;;;;;;;-1.07;82.64;99281.81;1615757;88;21027;-77
2022/12/22 07:35:33;;;;;;;91.00;32.98;;;;;;;-1.08;82.82;99278.79;1571871;90;21163;-76
2022/12/22 07:38:00;;;;;;;96.80;32.25;;;;;;;-1.04;83.16;99276.34;1621668;88;21036;-76
2022/12/22 07:40:28;;;;;;;72.47;26.45;;;;;;;-1.05;82.90;99273.36;1621227;88;21091;-76
2022/12/22 07:43:00;;;;;;;85.42;32.05;;;;;;;-1.13;82.69;99279.96;1618338;88;21066;-75
2022/12/22 07:45:28;;;;;;;77.08;30.10;;;;;;;-1.12;82.77;99285.50;1620981;87;21092;-76
2022/12/22 07:48:00;;;;;;;72.97;29.92;;;;;;;-1.11;82.86;99282.14;1620963;88;21052;-76
2022/12/22 07:50:27;;;;;;;87.35;29.10;;;;;;;-1.06;83.08;99282.23;1622408;88;21049;-76
2022/12/22 07:52:58;;;;;;;82.05;31.37;;;;;;;-1.20;82.60;99271.69;1616996;88;21401;-76
2022/12/22 07:55:33;;;;;;;88.17;33.38;;;;;;;-1.18;82.98;99264.94;1618130;88;21082;-76
2022/12/22 07:58:01;;;;;;;86.75;30.77;;;;;;;-1.21;82.92;99273.81;1622468;88;21088;-76
2022/12/22 08:00:28;;;;;;;82.85;33.10;;;;;;;-1.27;83.06;99268.14;1618661;88;21068;-76
2022/12/22 08:02:56;;;;;;;91.72;34.80;;;;;;;-1.24;83.24;99269.47;1616978;88;21032;-76
2022/12/22 08:05:25;;;;;;;90.15;32.90;;;;;;;-1.20;83.21;99269.14;1611799;88;21041;-76
2022/12/22 08:07:53;;;;;;;75.72;29.18;;;;;;;-1.22;83.19;99265.69;1621603;88;21032;-76
2022/12/22 08:10:20;;;;;;;93.60;36.00;;;;;;;-1.17;83.08;99271.78;1622661;88;21076;-77
2022/12/22 08:12:48;;;;;;;82.27;32.70;;;;;;;-1.12;83.03;99268.91;1613816;87;20997;-76
2022/12/22 08:15:15;;;;;;;78.15;32.03;;;;;;;-1.12;83.11;99261.69;1617392;87;21029;-76
2022/12/22 08:17:43;;;;;;;89.20;31.12;;;;;;;-1.15;83.17;99268.86;1621271;88;21084;-76
2022/12/22 08:20:11;;;;;;;76.35;31.02;;;;;;;-1.14;83.37;99260.36;1618379;88;21025;-76
2022/12/22 08:22:38;;;;;;;76.42;31.15;;;;;;;-1.11;83.45;99271.08;1619552;88;20967;-77
2022/12/22 08:25:07;;;;;;;83.85;32.35;;;;;;;-1.04;83.71;99266.55;1620177;88;21408;-77
2022/12/22 08:27:41;;;;;;;103.58;36.23;;;;;;;-0.94;83.69;99256.16;1627843;87;21092;-77
2022/12/22 08:30:09;;;;;;;;;;;;;;;-0.88;83.70;99263.95;1622848;88;21655;-76
2022/12/22 08:32:38;;;;;;;87.20;33.28;;;;;;;-0.86;83.51;99262.30;1631314;87;20147;-76
2022/12/22 08:35:08;;;;;;;87.97;34.27;;;;;;;-0.94;83.49;99262.53;1625824;88;21024;-76
2022/12/22 08:37:40;;;;;;;172.20;56.85;;;;;;;-0.88;83.61;99264.81;1632244;88;21003;-77
2022/12/22 08:40:13;;;;;;;172.00;53.17;;;;;;;-0.79;83.85;99261.63;1629973;87;21077;-76
2022/12/22 08:42:41;;;;;;;92.40;35.08;;;;;;;-0.70;83.86;99256.70;1632158;87;21032;-77
2022/12/22 08:45:10;;;;;;;84.20;33.05;;;;;;;-0.60;83.80;99259.05;1629902;87;21048;-77
2022/12/22 08:47:38;;;;;;;89.60;36.05;;;;;;;-0.57;83.55;99265.95;1631379;87;21453;-77
2022/12/22 08:50:07;;;;;;;89.75;35.85;;;;;;;-0.50;83.74;99261.40;1623725;87;21652;-77
2022/12/22 08:52:35;;;;;;;94.95;35.55;;;;;;;-0.46;83.51;99258.08;1631787;88;21826;-76
2022/12/22 08:55:02;;;;;;;79.82;32.63;;;;;;;-0.38;83.38;99255.27;1624240;87;21016;-77
2022/12/22 08:57:30;;;;;;;88.62;33.40;;;;;;;-0.28;83.59;99262.33;1631751;87;21648;-77
2022/12/22 08:59:58;;;;;;;85.50;33.33;;;;;;;-0.29;82.84;99259.31;1623967;87;21564;-77
2022/12/22 09:02:25;;;;;;;89.05;32.75;;;;;;;-0.20;83.55;99257.35;1631583;88;21577;-77
2022/12/22 09:04:53;;;;;;;85.97;34.53;;;;;;;-0.16;82.49;99252.78;1626520;87;21028;-77
2022/12/22 09:07:20;;;;;;;84.72;34.25;;;;;;;-0.05;82.36;99255.54;1628820;88;21068;-77
2022/12/22 09:09:48;;;;;;;90.57;33.85;;;;;;;0.06;82.11;99251.91;1628887;87;20984;-77
2022/12/22 09:12:16;;;;;;;87.33;34.45;;;;;;;0.11;82.43;99246.48;1624160;87;21019;-77
2022/12/22 09:14:43;;;;;;;95.32;35.92;;;;;;;0.18;82.52;99240.23;1630289;87;21017;-76
2022/12/22 09:17:11;;;;;;;95.32;37.03;;;;;;;0.28;82.59;99238.72;1620862;88;21064;-77
2022/12/22 09:19:38;;;;;;;102.22;35.25;;;;;;;0.39;82.99;99233.78;1629249;88;21068;-77
2022/12/22 09:22:06;;;;;;;96.82;34.98;;;;;;;0.41;82.58;99216.77;1625539;87;21603;-77
2022/12/22 09:24:34;;;;;;;93.97;33.60;;;;;;;0.49;83.08;99212.64;1627138;88;21001;-77
2022/12/22 09:27:02;;;;;;;85.22;32.53;;;;;;;0.45;82.71;99214.70;1627568;87;21032;-77
2022/12/22 09:29:29;;;;;;;84.35;35.30;;;;;;;0.42;82.49;99196.77;1618896;87;21093;-77
2022/12/22 09:31:57;;;;;;;77.97;31.80;;;;;;;0.37;82.32;99197.09;1620636;88;21036;-77
2022/12/22 09:34:24;;;;;;;88.52;34.88;;;;;;;0.38;82.22;99195.84;1620904;88;20985;-76
2022/12/22 09:36:52;;;;;;;77.42;33.13;;;;;;;0.38;82.44;99192.44;1619324;88;21036;-77
2022/12/22 09:39:21;;;;;;;82.90;33.30;;;;;;;0.46;81.88;99193.81;1611907;88;21125;-77
2022/12/22 09:41:53;;;;;;;93.05;33.70;;;;;;;0.53;82.59;99191.39;1604952;87;21046;-77
2022/12/22 09:44:33;;;;;;;78.67;32.08;;;;;;;0.61;82.43;99183.00;1601039;88;21114;-77
2022/12/22 09:47:15;;;;;;;83.62;33.13;;;;;;;0.69;82.33;99178.86;1618673;88;21061;-77
2022/12/22 09:49:43;;;;;;;88.58;33.55;;;;;;;0.81;82.44;99180.75;1617222;88;21130;-77
2022/12/22 09:52:36;;;;;;;85.42;34.90;;;;;;;0.84;81.73;99173.13;1615364;88;21082;-77
2022/12/22 09:55:24;;;;;;;97.10;34.20;;;;;;;0.92;82.12;99167.70;1611692;88;21157;-77
2022/12/22 09:57:55;;;;;;;92.75;36.58;;;;;;;0.86;80.46;99171.03;1571255;90;21047;-76
2022/12/22 10:00:25;;;;;;;83.03;33.28;;;;;;;0.92;81.03;99168.56;1582686;90;21033;-77
2022/12/22 10:03:10;;;;;;;78.72;32.35;;;;;;;0.97;80.08;99163.06;1588137;90;21492;-76
2022/12/22 10:06:04;;;;;;;75.42;29.27;;;;;;;1.08;81.11;99150.44;1594362;90;21000;-77
2022/12/22 10:08:36;;;;;;;80.90;31.70;;;;;;;0.99;80.07;99152.86;1589862;89;21560;-76
2022/12/22 10:11:03;;;;;;;82.90;34.38;;;;;;;1.04;81.04;99153.80;1619840;88;21507;-77
2022/12/22 10:13:32;;;;;;;83.25;32.03;;;;;;;1.02;80.09;99156.75;1614028;88;21097;-77
2022/12/22 10:16:00;;;;;;;85.70;32.08;;;;;;;1.04;80.16;99149.95;1622527;88;21005;-76
2022/12/22 10:18:28;;;;;;;91.15;34.90;;;;;;;1.05;79.72;99149.53;1618119;88;21113;-77
2022/12/22 10:21:11;;;;;;;95.60;35.00;;;;;;;1.06;80.52;99145.72;1617465;88;21496;-77
2022/12/22 10:23:46;;;;;;;84.77;32.48;;;;;;;1.12;79.80;99141.95;1617203;88;21054;-77
2022/12/22 10:26:31;;;;;;;79.95;31.48;;;;;;;1.21;80.14;99144.20;1618600;88;20995;-77
2022/12/22 10:29:12;;;;;;;83.45;31.93;;;;;;;1.21;79.42;99138.64;1631511;87;21898;-76
2022/12/22 10:32:01;;;;;;;77.82;32.20;;;;;;;1.23;79.14;99130.98;1641230;87;21026;-76
2022/12/22 10:34:29;;;;;;;83.72;32.88;;;;;;;1.26;78.79;99127.20;1637359;87;21037;-76
2022/12/22 10:37:02;;;;;;;81.42;31.82;;;;;;;1.30;80.07;99126.40;1641041;87;21030;-77
2022/12/22 10:39:33;;;;;;;81.42;33.75;;;;;;;1.31;79.93;99123.86;1638044;87;21041;-77
2022/12/22 10:42:13;;;;;;;80.87;33.85;;;;;;;1.39;80.04;99118.80;1631374;87;21013;-76
2022/12/22 10:44:47;;;;;;;91.47;33.92;;;;;;;1.45;80.32;99121.87;1639719;87;21066;-76
2022/12/22 10:47:19;;;;;;;86.95;34.67;;;;;;;1.53;80.36;99116.41;1634386;87;20993;-77
2022/12/22 10:49:50;;;;;;;80.47;33.77;;;;;;;1.66;80.01;99110.59;1638965;87;21034;-77
2022/12/22 10:52:26;;;;;;;105.97;39.63;;;;;;;1.84;80.24;99104.80;1637239;87;21074;-77
2022/12/22 10:55:19;;;;;;;88.80;34.83;;;;;;;1.87;79.22;99099.72;1639924;87;21085;-76
2022/12/22 10:57:48;;;;;;;76.97;30.87;;;;;;;1.90;79.21;99095.88;1635689;87;21070;-76
2022/12/22 11:00:30;;;;;;;80.90;32.48;;;;;;;1.91;78.84;99087.76;1639803;87;21768;-77
2022/12/22 11:03:01;;;;;;;77.27;31.55;;;;;;;1.94;79.07;99089.94;1630906;87;21021;-77
2022/12/22 11:05:31;;;;;;;89.65;32.13;;;;;;;1.99;78.62;99087.00;1640775;87;22014;-77
2022/12/22 11:08:17;;;;;;;76.47;29.52;;;;;;;2.04;78.38;99083.19;1637777;87;20992;-76
2022/12/22 11:10:55;;;;;;;76.02;29.60;;;;;;;2.07;78.02;99068.24;1639266;87;21029;-76
2022/12/22 11:13:48;;;;;;;62.05;26.82;;;;;;;2.19;79.60;99061.95;1633444;87;21073;-76
2022/12/22 11:16:35;;;;;;;67.87;27.42;;;;;;;2.19;77.90;99060.67;1639046;87;21045;-77
2022/12/22 11:19:35;;;;;;;62.23;26.35;;;;;;;2.23;77.83;99049.59;1638454;87;21029;-76
2022/12/22 11:22:40;;;;;;;67.90;27.42;;;;;;;2.37;78.03;99058.67;1622901;87;21081;-77
2022/12/22 11:25:30;;;;;;;;;;;;;;;2.37;77.78;99070.22;1638236;87;21077;-77
2022/12/22 11:28:15;;;;;;;71.30;27.55;;;;;;;2.37;74.83;99058.67;1632485;87;20159;-77
2022/12/22 11:31:08;;;;;;;58.25;24.57;;;;;;;2.43;76.44;99053.98;1607940;87;21047;-77
2022/12/22 11:34:10;;;;;;;69.17;26.95;;;;;;;2.45;77.13;99049.72;1624357;87;21530;-77
2022/12/22 11:37:03;;;;;;;59.88;24.95;;;;;;;2.44;77.27;99045.02;1629788;88;21050;-77
2022/12/22 11:39:48;;;;;;;62.23;25.35;;;;;;;2.42;75.81;99047.15;1627122;88;21034;-77
2022/12/22 11:42:42;;;;;;;57.10;23.70;;;;;;;2.41;75.09;99043.73;1631392;87;21057;-77
2022/12/22 11:45:39;;;;;;;;;;;;;;;2.43;76.40;99043.72;1598296;86;21072;-78
2022/12/22 11:48:47;;;;;;;47.15;18.90;;;;;;;2.37;74.12;99038.15;1622209;86;20146;-77
2022/12/22 11:51:46;;;;;;;54.73;22.42;;;;;;;2.37;76.21;99028.73;1625789;86;21097;-77
2022/12/22 11:54:41;;;;;;;59.85;20.72;;;;;;;2.37;75.57;99031.73;1627568;86;21041;-77
2022/12/22 11:57:54;;;;;;;49.65;20.88;;;;;;;2.48;76.31;99024.95;1622444;86;21077;-78
2022/12/22 12:00:22;;;;;;;49.55;19.98;;;;;;;2.53;75.78;99019.86;1628837;86;21057;-76
2022/12/22 12:03:30;;;;;;;54.20;21.73;;;;;;;2.53;76.67;99011.73;1617702;88;21077;-76
2022/12/22 12:06:18;;;;;;;50.15;21.02;;;;;;;2.56;76.11;99020.72;1626048;88;21069;-76
2022/12/22 12:09:11;;;;;;;49.27;20.60;;;;;;;2.53;76.27;99021.14;1622122;87;21081;-76
2022/12/22 12:12:06;;;;;;;61.58;21.15;;;;;;;2.54;76.55;99012.15;1625577;86;21054;-76
2022/12/22 12:14:54;;;;;;;44.63;18.98;;;;;;;2.54;76.66;99003.16;1541320;90;21039;-77
2022/12/22 12:17:56;;;;;;;52.30;21.27;;;;;;;2.62;76.25;99002.36;1577378;90;21395;-76
2022/12/22 12:20:52;;;;;;;50.30;19.42;;;;;;;2.72;76.43;99004.97;1587459;90;21137;-77
2022/12/22 12:23:41;;;;;;;41.10;17.87;;;;;;;2.84;76.22;99001.61;1588385;90;21036;-77
2022/12/22 12:26:35;;;;;;;51.35;19.48;;;;;;;2.87;74.53;99002.92;1588990;90;21083;-77
2022/12/22 12:29:41;;;;;;;51.45;19.02;;;;;;;2.93;76.10;99010.64;1546811;91;21099;-77
2022/12/22 12:32:17;;;;;;;45.15;18.48;;;;;;;2.92;74.57;99005.06;1620881;88;21094;-77
2022/12/22 12:34:49;;;;;;;48.40;20.97;;;;;;;2.84;74.70;98996.47;1618882;87;21068;-77
2022/12/22 12:37:28;;;;;;;46.33;18.82;;;;;;;2.81;75.23;98990.48;1625953;87;21027;-77
2022/12/22 12:40:30;;;;;;;48.92;19.07;;;;;;;2.81;75.13;98990.05;1621996;88;21115;-77
2022/12/22 12:43:01;;;;;;;48.75;21.82;;;;;;;2.74;74.86;98982.73;1622771;87;21137;-77
2022/12/22 12:45:44;;;;;;;47.65;18.80;;;;;;;2.83;74.89;98996.48;1592310;89;21616;-77
2022/12/22 12:48:27;;;;;;;43.02;19.82;;;;;;;2.91;75.55;98996.09;1636003;87;21121;-77
2022/12/22 12:50:56;;;;;;;69.90;27.37;;;;;;;2.91;74.43;99006.36;1584549;89;21004;-77
2022/12/22 12:53:27;;;;;;;63.92;24.15;;;;;;;2.95;74.82;98982.41;1593250;89;21533;-77
2022/12/22 12:56:05;;;;;;;57.23;22.75;;;;;;;2.96;75.28;98986.28;1593713;89;21024;-76
2022/12/22 12:58:42;;;;;;;53.52;21.55;;;;;;;3.04;75.06;98989.28;1593360;89;21049;-76
2022/12/22 13:01:20;;;;;;;53.75;21.48;;;;;;;3.08;75.46;98984.58;1596865;89;21627;-77
2022/12/22 13:03:48;;;;;;;47.15;18.23;;;;;;;3.10;74.35;98989.30;1596479;88;21015;-76
2022/12/22 13:06:46;;;;;;;55.50;18.95;;;;;;;3.14;75.15;98991.91;1599692;88;21023;-76
2022/12/22 13:09:27;;;;;;;47.33;17.95;;;;;;;3.08;73.80;98985.43;1596099;89;20979;-77
2022/12/22 13:11:55;;;;;;;44.90;17.15;;;;;;;3.06;73.50;98977.30;1597267;89;21138;-75
2022/12/22 13:14:59;;;;;;;41.53;16.37;;;;;;;3.02;72.98;98970.44;1591651;88;21035;-77
2022/12/22 13:17:48;;;;;;;52.60;18.32;;;;;;;2.97;73.68;98975.13;1597756;89;21129;-77
2022/12/22 13:20:26;;;;;;;44.63;18.25;;;;;;;2.89;73.21;98974.25;1607847;88;21108;-76
2022/12/22 13:22:57;;;;;;;43.55;18.00;;;;;;;2.86;73.50;98983.22;1608536;88;21013;-75
2022/12/22 13:25:30;;;;;;;46.42;17.55;;;;;;;2.84;73.14;98969.52;1609112;88;21068;-76
2022/12/22 13:27:58;;;;;;;52.30;18.75;;;;;;;2.83;73.85;98967.81;1609710;88;21095;-78
2022/12/22 13:30:28;;;;;;;44.88;20.37;;;;;;;2.87;73.51;98981.09;1600011;87;22068;-77
2022/12/22 13:33:00;;;;;;;38.60;17.20;;;;;;;2.87;73.98;98970.82;1628815;87;21084;-76
2022/12/22 13:35:37;;;;;;;41.45;16.50;;;;;;;2.90;74.28;98968.25;1624135;87;20997;-77
2022/12/22 13:38:05;;;;;;;45.95;19.82;;;;;;;2.81;74.11;98961.81;1626325;87;21514;-77
2022/12/22 13:40:42;;;;;;;45.92;18.17;;;;;;;2.79;74.42;98969.94;1623579;87;21520;-77
2022/12/22 13:43:14;;;;;;;43.23;17.40;;;;;;;2.76;74.52;98976.33;1620816;87;21047;-77
2022/12/22 13:45:48;;;;;;;54.33;19.05;;;;;;;2.74;74.60;98976.75;1625570;87;21714;-77
2022/12/22 13:48:41;;;;;;;43.38;17.85;;;;;;;2.70;74.93;98975.87;1631065;87;20955;-77
2022/12/22 13:51:26;;;;;;;48.63;18.42;;;;;;;2.70;75.26;98982.72;1619988;87;21040;-77
2022/12/22 13:54:05;;;;;;;45.83;19.98;;;;;;;2.67;75.69;98984.01;1622896;88;21087;-77
2022/12/22 13:56:51;;;;;;;45.92;18.82;;;;;;;2.64;75.89;98983.55;1586336;90;21076;-77
2022/12/22 13:59:32;;;;;;;45.30;17.85;;;;;;;2.67;75.72;98989.99;1595063;89;21071;-76
2022/12/22 14:02:05;;;;;;;43.60;18.55;;;;;;;2.57;75.71;98972.40;1608003;87;21731;-77
2022/12/22 14:04:33;;;;;;;40.20;19.15;;;;;;;2.59;75.69;98986.53;1606236;89;21041;-77
2022/12/22 14:07:19;;;;;;;47.65;20.57;;;;;;;2.64;75.73;98989.95;1607347;89;20984;-77
2022/12/22 14:09:50;;;;;;;48.83;18.85;;;;;;;2.58;75.44;98970.69;1603873;89;20981;-77
2022/12/22 14:12:21;;;;;;;55.35;19.12;;;;;;;2.60;75.53;98974.11;1578017;89;21519;-77
2022/12/22 14:14:52;;;;;;;49.98;19.67;;;;;;;2.59;75.71;98968.56;1600258;89;21073;-77
2022/12/22 14:17:31;;;;;;;51.35;20.20;;;;;;;2.59;75.85;98977.11;1596592;88;21056;-77
2022/12/22 14:20:03;;;;;;;52.20;21.27;;;;;;;2.60;75.80;98971.55;1597680;89;21061;-76
2022/12/22 14:22:42;;;;;;;57.90;22.62;;;;;;;2.61;75.78;98969.83;1600881;89;20991;-76
2022/12/22 14:25:18;;;;;;;52.95;21.30;;;;;;;2.62;75.78;98977.55;1599448;89;21940;-76
2022/12/22 14:27:54;;;;;;;51.30;21.10;;;;;;;2.59;76.05;98974.55;1600651;89;21031;-77
2022/12/22 14:30:30;;;;;;;54.18;21.93;;;;;;;2.62;76.13;98973.70;1607232;89;20992;-76
2022/12/22 14:33:14;;;;;;;59.75;23.20;;;;;;;2.63;76.19;98978.42;1610484;88;21084;-76
2022/12/22 14:35:41;;;;;;;56.37;20.55;;;;;;;2.58;76.46;98981.80;1612351;89;21015;-77
2022/12/22 14:38:20;;;;;;;53.90;19.90;;;;;;;2.56;76.59;98985.22;1604770;88;21042;-76
2022/12/22 14:40:49;;;;;;;40.08;17.75;;;;;;;2.61;76.29;98986.52;1607462;88;21555;-76
2022/12/22 14:43:22;;;;;;;48.70;18.27;;;;;;;2.57;76.24;98975.40;1612962;87;21083;-76
2022/12/22 14:45:53;;;;;;;48.08;20.23;;;;;;;2.60;76.06;98971.55;1607337;88;21980;-77
2022/12/22 14:48:34;;;;;;;58.68;18.65;;;;;;;2.57;76.20;98985.23;1612831;88;21623;-76
2022/12/22 14:51:02;;;;;;;41.40;18.73;;;;;;;2.57;76.29;98983.09;1608530;88;21996;-77
2022/12/22 14:53:50;;;;;;;46.90;18.55;;;;;;;2.54;76.36;98985.20;1617357;88;21095;-77
2022/12/22 14:56:19;;;;;;;45.88;19.27;;;;;;;2.51;76.91;98985.64;1611935;88;21062;-77
2022/12/22 14:58:48;;;;;;;48.52;19.45;;;;;;;2.52;76.77;98997.59;1617470;87;21112;-77
2022/12/22 15:01:26;;;;;;;62.20;23.42;;;;;;;2.59;76.65;99001.93;1615147;88;21036;-76
2022/12/22 15:04:19;;;;;;;58.10;24.92;;;;;;;2.62;76.73;99001.08;1618774;88;21000;-76
2022/12/22 15:06:48;;;;;;;77.42;28.25;;;;;;;2.64;76.72;99016.91;1617089;88;20996;-76
2022/12/22 15:09:21;;;;;;;79.10;27.62;;;;;;;2.61;76.59;99027.17;1618697;87;21485;-77
2022/12/22 15:11:56;;;;;;;79.60;30.50;;;;;;;2.61;76.61;99022.05;1623174;88;21500;-77
2022/12/22 15:14:25;;;;;;;87.92;32.42;;;;;;;2.55;76.74;99021.58;1616404;88;21031;-76
2022/12/22 15:17:00;;;;;;;89.25;34.48;;;;;;;2.53;76.85;99027.13;1612643;88;21083;-76
2022/12/22 15:19:32;;;;;;;102.87;38.58;;;;;;;2.50;76.90;99024.53;1608997;88;21483;-77
2022/12/22 15:22:00;;;;;;;104.20;37.48;;;;;;;2.51;76.80;99031.39;1608230;88;21054;-76
2022/12/22 15:24:28;;;;;;;97.40;37.48;;;;;;;2.41;77.23;99032.19;1611008;88;21082;-77
2022/12/22 15:26:55;;;;;;;102.90;39.60;;;;;;;2.38;77.08;99033.44;1611795;88;21006;-76
2022/12/22 15:29:23;;;;;;;99.35;36.30;;;;;;;2.30;77.58;99041.08;1600634;88;21648;-76